Quiset — P95944 — position and weather

sailwx.info

Track history (hours):
 
Tides and Currents Weather Stations Pressure Air Temp Water Temp Dewpoint Dewpoint Depression Visibility Wind Speed Wind Dir Waves Ship Positions

Quiset

Last reported at 2018-Feb-15 05:52 UTC. Time now 2018-Feb-17 19:08 UTC.
Position N 17°23' W 062°16'.

MMSI: 244020394.

Date/timePositionNaut miles runAvg speedWind from/ knotsBaromVisibWave heightAir tempDewpointWater temp
2018-Feb-15 05:52N 17°23' W 062°16'4 7.7
2018-Feb-15 05:18N 17°20' W 062°12'2 7.8
2018-Feb-15 05:00N 17°18' W 062°10'4 7.6
2018-Feb-15 04:29N 17°16' W 062°07'4 8.0
2018-Feb-15 04:00N 17°13' W 062°05'4 8.1
2018-Feb-15 03:30N 17°10' W 062°02'4 7.7
2018-Feb-15 03:00N 17°07' W 061°58'4 7.0
2018-Feb-15 02:30N 17°05' W 061°56'2 3.4
2018-Feb-15 02:00N 17°05' W 061°54'1 0.3
2018-Feb-15 00:07N 17°04' W 061°54'0 0.0
2018-Feb-14 23:58N 17°04' W 061°54'0 0.0
2018-Feb-14 23:25N 17°04' W 061°54'0 0.0
2018-Feb-14 22:55N 17°04' W 061°54'0 0.0
2018-Feb-14 22:19N 17°04' W 061°54'0 0.0
2018-Feb-14 20:46N 17°04' W 061°54'0 0.0
2018-Feb-14 20:19N 17°04' W 061°54'0 0.0
2018-Feb-14 19:58N 17°04' W 061°54'0 0.0
2018-Feb-14 19:28N 17°04' W 061°54'0 0.0
2018-Feb-14 18:58N 17°04' W 061°54'0 0.0
2018-Feb-14 18:28N 17°04' W 061°54'0 0.0
2018-Feb-14 15:52N 17°04' W 061°54'0 0.0
2018-Feb-14 14:52N 17°04' W 061°54'0 0.0
2018-Feb-14 14:01N 17°04' W 061°54'0 0.0
2018-Feb-14 13:55N 17°04' W 061°54'0 0.0
2018-Feb-14 13:19N 17°04' W 061°54'0 0.0
2018-Feb-14 11:22N 17°04' W 061°54'0 0.0
2018-Feb-14 07:28N 17°04' W 061°54'0 0.0
2018-Feb-14 06:49N 17°04' W 061°54'0 0.0
2018-Feb-14 06:13N 17°04' W 061°54'0 0.0
2018-Feb-14 05:46N 17°04' W 061°54'0 0.0
2018-Feb-14 05:19N 17°04' W 061°54'0 0.0
2018-Feb-14 04:55N 17°04' W 061°54'0 0.0
2018-Feb-14 04:25N 17°04' W 061°54'0 0.0
2018-Feb-14 03:58N 17°04' W 061°54'0 0.0
2018-Feb-14 03:28N 17°04' W 061°54'0 0.0
2018-Feb-14 02:49N 17°04' W 061°54'0 0.0
2018-Feb-14 02:28N 17°04' W 061°54'0 0.0
2018-Feb-14 01:55N 17°04' W 061°54'0 0.0
2018-Feb-14 01:16N 17°04' W 061°54'0 0.0
2018-Feb-14 00:58N 17°04' W 061°54'0 0.0
2018-Feb-14 00:22N 17°04' W 061°54'0 0.0
2018-Feb-13 23:43N 17°04' W 061°54'0 0.0
2018-Feb-13 23:28N 17°04' W 061°54'0 0.0
2018-Feb-13 22:52N 17°04' W 061°54'0 0.0
2018-Feb-13 22:19N 17°04' W 061°54'0 0.0
2018-Feb-13 21:58N 17°04' W 061°54'0 0.0
2018-Feb-13 21:07N 17°04' W 061°54'0 0.0
2018-Feb-13 20:49N 17°04' W 061°54'0 0.0
2018-Feb-13 20:22N 17°04' W 061°54'0 0.0
2018-Feb-13 19:55N 17°04' W 061°54'0 0.0
2018-Feb-13 19:28N 17°04' W 061°54'0 0.0
2018-Feb-13 18:19N 17°04' W 061°54'0 0.0
2018-Feb-13 17:49N 17°04' W 061°54'0 0.0
2018-Feb-13 17:25N 17°04' W 061°54'0 0.0
2018-Feb-13 15:31N 17°04' W 061°54'0 0.1
2018-Feb-13 15:28N 17°04' W 061°54'0 0.0
2018-Feb-13 14:34N 17°04' W 061°54'0 0.1
2018-Feb-13 14:28N 17°04' W 061°54'0 0.0
2018-Feb-13 13:58N 17°04' W 061°54'0 0.0
2018-Feb-13 13:22N 17°04' W 061°54'0 0.0
2018-Feb-13 12:55N 17°04' W 061°54'0 0.0
2018-Feb-13 11:46N 17°04' W 061°54'0 0.0
2018-Feb-13 10:10N 17°04' W 061°54'0 0.0
2018-Feb-13 05:46N 17°04' W 061°54'0 0.0
2018-Feb-12 23:58N 17°04' W 061°54'0 0.0
2018-Feb-12 20:52N 17°04' W 061°54'0 0.0
2018-Feb-12 20:28N 17°04' W 061°54'0 0.0
2018-Feb-12 19:19N 17°04' W 061°54'0 0.0
2018-Feb-12 18:55N 17°04' W 061°54'0 0.0
2018-Feb-12 18:28N 17°04' W 061°54'0 0.0
2018-Feb-12 14:24N 17°05' W 061°54'1 3.5
2018-Feb-12 14:00N 17°05' W 061°55'3 5.7
2018-Feb-12 13:30N 17°07' W 061°54'1 1.3
2018-Feb-12 12:59N 17°08' W 061°53'0 0.0
2018-Feb-12 12:29N 17°08' W 061°53'0 0.0
2018-Feb-12 11:59N 17°08' W 061°53'0 0.0
2018-Feb-12 11:29N 17°08' W 061°53'0 0.0
2018-Feb-12 10:59N 17°08' W 061°53'0 0.0
2018-Feb-12 10:29N 17°08' W 061°53'0 0.0
2018-Feb-12 09:59N 17°08' W 061°53'0 0.0
2018-Feb-12 09:29N 17°08' W 061°53'0 0.0
2018-Feb-12 08:59N 17°08' W 061°53'0 0.0
2018-Feb-12 08:29N 17°08' W 061°53'0 0.0
2018-Feb-12 07:59N 17°08' W 061°53'0 0.0
2018-Feb-12 07:29N 17°08' W 061°53'0 0.0
2018-Feb-12 06:56N 17°08' W 061°53'0 0.0
2018-Feb-12 06:29N 17°08' W 061°53'0 0.0
2018-Feb-12 05:59N 17°08' W 061°53'0 0.0
2018-Feb-12 05:29N 17°08' W 061°53'0 0.0
2018-Feb-12 04:59N 17°08' W 061°53'0 0.0
2018-Feb-12 04:29N 17°08' W 061°53'0 0.0
2018-Feb-12 03:59N 17°08' W 061°53'0 0.0
2018-Feb-12 03:29N 17°08' W 061°53'0 0.0
2018-Feb-12 02:59N 17°08' W 061°53'0 0.0
2018-Feb-12 02:29N 17°08' W 061°53'0 0.0
2018-Feb-12 01:59N 17°08' W 061°53'0 0.0
2018-Feb-12 01:29N 17°08' W 061°53'0 0.0
2018-Feb-12 00:59N 17°08' W 061°53'0 0.0
2018-Feb-12 00:29N 17°08' W 061°53'0 0.0
2018-Feb-11 23:59N 17°08' W 061°53'0 0.0
2018-Feb-11 23:29N 17°08' W 061°53'0 0.0
2018-Feb-11 22:59N 17°08' W 061°53'0 0.0
2018-Feb-11 22:29N 17°08' W 061°53'0 0.0
2018-Feb-11 21:56N 17°08' W 061°53'0 0.0
2018-Feb-11 21:29N 17°08' W 061°53'0 0.0
2018-Feb-11 20:56N 17°08' W 061°53'0 0.0
2018-Feb-11 20:26N 17°08' W 061°53'0 0.0
2018-Feb-11 19:59N 17°08' W 061°53'0 0.0
2018-Feb-11 19:29N 17°08' W 061°53'0 0.0
2018-Feb-11 18:56N 17°08' W 061°53'0 0.0
2018-Feb-11 18:29N 17°08' W 061°53'0 0.0
2018-Feb-11 17:59N 17°08' W 061°53'0 0.0
2018-Feb-11 17:29N 17°08' W 061°53'0 0.0
2018-Feb-11 16:59N 17°08' W 061°53'0 0.0
2018-Feb-11 16:29N 17°08' W 061°53'0 0.0
2018-Feb-11 15:59N 17°08' W 061°53'0 0.0
2018-Feb-11 15:29N 17°08' W 061°53'0 0.0
2018-Feb-11 14:59N 17°08' W 061°53'0 0.0
2018-Feb-11 14:29N 17°08' W 061°53'0 0.0
2018-Feb-11 13:59N 17°08' W 061°53'0 0.0
2018-Feb-11 13:29N 17°08' W 061°53'0 0.0
2018-Feb-11 12:56N 17°08' W 061°53'0 0.0
2018-Feb-11 12:29N 17°08' W 061°53'0 0.0
2018-Feb-11 11:59N 17°08' W 061°53'0 0.0
2018-Feb-11 11:29N 17°08' W 061°53'0 0.0
2018-Feb-11 10:59N 17°08' W 061°53'0 0.0
2018-Feb-11 10:29N 17°08' W 061°53'0 0.0
2018-Feb-11 09:59N 17°08' W 061°53'0 0.0
2018-Feb-11 09:29N 17°08' W 061°53'0 0.0
2018-Feb-11 08:59N 17°08' W 061°53'0 0.0
2018-Feb-11 08:29N 17°08' W 061°53'0 0.0
2018-Feb-11 07:59N 17°08' W 061°53'0 0.0
2018-Feb-11 07:26N 17°08' W 061°53'0 0.0
2018-Feb-11 06:59N 17°08' W 061°53'0 0.0
2018-Feb-11 06:29N 17°08' W 061°53'0 0.0
2018-Feb-11 05:59N 17°08' W 061°53'0 0.0
2018-Feb-11 05:29N 17°08' W 061°53'0 0.0
2018-Feb-11 04:59N 17°08' W 061°53'0 0.0
2018-Feb-11 04:29N 17°08' W 061°53'0 0.0
2018-Feb-11 03:56N 17°08' W 061°53'0 0.0
2018-Feb-11 03:29N 17°08' W 061°53'0 0.0
2018-Feb-11 02:59N 17°08' W 061°53'0 0.0
2018-Feb-11 02:29N 17°08' W 061°53'0 0.0
2018-Feb-11 01:59N 17°08' W 061°53'0 0.0
2018-Feb-11 01:29N 17°08' W 061°53'0 0.0
2018-Feb-11 00:59N 17°08' W 061°53'0 0.0
2018-Feb-11 00:29N 17°08' W 061°53'0 0.0
2018-Feb-10 23:59N 17°08' W 061°53'0 0.0
2018-Feb-10 23:26N 17°08' W 061°53'0 0.0
2018-Feb-10 22:59N 17°08' W 061°53'0 0.0
2018-Feb-10 22:29N 17°08' W 061°53'0 0.0
2018-Feb-10 21:59N 17°08' W 061°53'0 0.0
2018-Feb-10 21:26N 17°08' W 061°53'0 0.0
2018-Feb-10 20:59N 17°08' W 061°53'0 0.0
2018-Feb-10 20:29N 17°08' W 061°53'0 0.0
2018-Feb-10 19:59N 17°08' W 061°53'0 0.0
2018-Feb-10 19:29N 17°08' W 061°53'0 0.0
2018-Feb-10 18:59N 17°08' W 061°53'0 0.0
2018-Feb-10 18:29N 17°08' W 061°53'0 0.0
2018-Feb-10 17:59N 17°08' W 061°53'0 0.0
2018-Feb-10 17:29N 17°08' W 061°53'0 0.0
2018-Feb-10 16:59N 17°08' W 061°53'0 0.0
2018-Feb-10 16:29N 17°08' W 061°53'0 0.0
2018-Feb-10 15:59N 17°08' W 061°53'0 0.0
2018-Feb-10 15:26N 17°08' W 061°53'0 0.0
2018-Feb-10 14:59N 17°08' W 061°53'0 0.0
2018-Feb-10 14:29N 17°08' W 061°53'0 0.0
2018-Feb-10 13:59N 17°08' W 061°53'0 0.0
2018-Feb-10 13:29N 17°08' W 061°53'0 0.0
2018-Feb-10 12:59N 17°08' W 061°53'0 0.0
2018-Feb-10 12:29N 17°08' W 061°53'0 0.0
2018-Feb-10 11:53N 17°08' W 061°53'0 0.0
2018-Feb-10 11:29N 17°08' W 061°53'0 0.0
2018-Feb-10 10:59N 17°08' W 061°53'0 0.0
2018-Feb-10 10:29N 17°08' W 061°53'0 0.0
2018-Feb-10 09:59N 17°08' W 061°53'0 0.0
2018-Feb-10 09:29N 17°08' W 061°53'0 0.0
2018-Feb-10 08:59N 17°08' W 061°53'0 0.0
2018-Feb-10 08:29N 17°08' W 061°53'0 0.0
2018-Feb-10 07:59N 17°08' W 061°53'0 0.0
2018-Feb-10 07:29N 17°08' W 061°53'0 0.0
2018-Feb-10 06:59N 17°08' W 061°53'0 0.0
2018-Feb-10 06:29N 17°08' W 061°53'0 0.0
2018-Feb-10 05:59N 17°08' W 061°53'0 0.0
2018-Feb-10 05:29N 17°08' W 061°53'0 0.0
2018-Feb-10 04:59N 17°08' W 061°53'0 0.0
2018-Feb-10 04:29N 17°08' W 061°53'0 0.0
2018-Feb-10 03:59N 17°08' W 061°53'0 0.0
2018-Feb-10 03:29N 17°08' W 061°53'0 0.0
2018-Feb-10 02:56N 17°08' W 061°53'0 0.0
2018-Feb-10 02:29N 17°08' W 061°53'0 0.0
2018-Feb-10 01:59N 17°08' W 061°53'0 0.0
2018-Feb-10 01:29N 17°08' W 061°53'0 0.0
2018-Feb-10 00:59N 17°08' W 061°53'0 0.0
2018-Feb-10 00:29N 17°08' W 061°53'0 0.0
2018-Feb-09 23:59N 17°08' W 061°53'0 0.0
2018-Feb-09 23:29N 17°08' W 061°53'0 0.0
2018-Feb-09 22:59N 17°08' W 061°53'0 0.0
2018-Feb-09 22:44N 17°08' W 061°53'1 0.1
2018-Feb-09 18:30N 17°08' W 061°53'1 0.0
2018-Feb-08 01:27N 17°08' W 061°53'0 0.0
2018-Feb-08 00:57N 17°08' W 061°53'0 0.0
2018-Feb-08 00:30N 17°08' W 061°53'0 0.0
2018-Feb-08 00:00N 17°08' W 061°53'0 0.0
2018-Feb-07 23:30N 17°08' W 061°53'0 0.0
2018-Feb-07 22:57N 17°08' W 061°53'0 0.0
2018-Feb-07 22:30N 17°08' W 061°53'0 0.0
2018-Feb-07 22:00N 17°08' W 061°53'0 0.0
2018-Feb-07 21:30N 17°08' W 061°53'3 0.3
2018-Feb-07 09:24N 17°05' W 061°54'0 0.0
2018-Feb-07 09:00N 17°05' W 061°54'0 0.0
2018-Feb-07 08:30N 17°05' W 061°54'0 0.0
2018-Feb-07 07:54N 17°05' W 061°54'0 0.0
2018-Feb-07 07:27N 17°05' W 061°54'0 0.0
2018-Feb-07 06:57N 17°05' W 061°54'0 0.0
2018-Feb-07 06:24N 17°05' W 061°54'0 0.0
2018-Feb-07 06:00N 17°05' W 061°54'0 0.0
2018-Feb-07 05:27N 17°05' W 061°54'0 0.0
2018-Feb-07 05:00N 17°05' W 061°54'0 0.0
2018-Feb-07 04:30N 17°05' W 061°54'0 0.0
2018-Feb-07 03:57N 17°05' W 061°54'0 0.0
2018-Feb-07 03:27N 17°05' W 061°54'0 0.0
2018-Feb-07 02:57N 17°05' W 061°54'0 0.0
2018-Feb-07 02:27N 17°05' W 061°54'0 0.0
2018-Feb-07 02:00N 17°05' W 061°54'0 0.0
2018-Feb-07 01:21N 17°05' W 061°54'0 0.0
2018-Feb-07 00:51N 17°05' W 061°54'0 0.0
2018-Feb-07 00:27N 17°05' W 061°54'0 0.0
2018-Feb-07 00:00N 17°05' W 061°54'0 0.0
2018-Feb-06 23:30N 17°05' W 061°54'0 0.0
2018-Feb-06 22:54N 17°05' W 061°54'0 0.0
2018-Feb-06 22:30N 17°05' W 061°54'0 0.0
2018-Feb-06 21:51N 17°05' W 061°54'0 0.0
2018-Feb-06 21:15N 17°05' W 061°54'0 0.0
2018-Feb-06 20:57N 17°05' W 061°54'0 0.0
2018-Feb-06 20:30N 17°05' W 061°54'0 0.0
2018-Feb-06 19:57N 17°05' W 061°54'0 0.0
2018-Feb-06 19:30N 17°05' W 061°54'0 0.0
2018-Feb-06 18:57N 17°05' W 061°54'0 0.0
2018-Feb-06 18:24N 17°05' W 061°54'0 0.0
2018-Feb-06 17:36N 17°05' W 061°54'0 0.0
2018-Feb-06 17:24N 17°05' W 061°54'0 0.0
2018-Feb-06 17:00N 17°05' W 061°54'0 0.0
2018-Feb-06 15:51N 17°05' W 061°54'0 0.0
2018-Feb-06 15:24N 17°05' W 061°54'0 0.0
2018-Feb-06 14:27N 17°05' W 061°54'0 0.0
2018-Feb-06 13:39N 17°05' W 061°54'0 0.0
2018-Feb-06 13:24N 17°05' W 061°54'0 0.0
2018-Feb-06 13:00N 17°05' W 061°54'0 0.0
2018-Feb-06 12:30N 17°05' W 061°54'0 0.0
2018-Feb-06 12:00N 17°05' W 061°54'0 0.0
2018-Feb-06 11:18N 17°05' W 061°54'0 0.0
2018-Feb-06 11:00N 17°05' W 061°54'0 0.0
2018-Feb-06 10:27N 17°05' W 061°54'0 0.0
2018-Feb-06 09:51N 17°05' W 061°54'0 0.0
2018-Feb-06 09:30N 17°05' W 061°54'0 0.0
2018-Feb-06 09:00N 17°05' W 061°54'0 0.0
2018-Feb-06 08:06N 17°05' W 061°54'0 0.0
2018-Feb-06 08:00N 17°05' W 061°54'0 0.0
2018-Feb-06 07:15N 17°05' W 061°54'0 0.0
2018-Feb-06 06:54N 17°05' W 061°54'0 0.0
2018-Feb-06 06:24N 17°05' W 061°54'0 0.0
2018-Feb-06 05:51N 17°05' W 061°54'0 0.0
2018-Feb-06 05:24N 17°05' W 061°54'0 0.0
2018-Feb-06 04:48N 17°05' W 061°54'0 0.0
2018-Feb-06 03:57N 17°05' W 061°54'0 0.0
2018-Feb-06 03:21N 17°05' W 061°54'0 0.0
2018-Feb-06 02:48N 17°05' W 061°54'0 0.0
2018-Feb-06 02:24N 17°05' W 061°54'0 0.0
2018-Feb-06 02:00N 17°05' W 061°54'0 0.0
2018-Feb-06 01:30N 17°05' W 061°54'0 0.0
2018-Feb-06 00:57N 17°05' W 061°54'0 0.0
2018-Feb-06 00:30N 17°05' W 061°54'0 0.0
2018-Feb-05 23:54N 17°05' W 061°54'0 0.0
2018-Feb-05 23:30N 17°05' W 061°54'0 0.0
2018-Feb-05 22:51N 17°05' W 061°54'0 0.0
2018-Feb-05 22:30N 17°05' W 061°54'0 0.0
2018-Feb-05 21:54N 17°05' W 061°54'0 0.0
2018-Feb-05 21:00N 17°05' W 061°54'0 0.0
2018-Feb-05 20:30N 17°05' W 061°54'0 0.0
2018-Feb-05 19:24N 17°05' W 061°54'0 0.0
2018-Feb-05 18:48N 17°05' W 061°54'0 0.0
2018-Feb-05 18:27N 17°05' W 061°54'0 0.0
2018-Feb-05 17:48N 17°05' W 061°54'0 0.0
2018-Feb-05 17:30N 17°05' W 061°54'0 0.0
2018-Feb-05 13:54N 17°05' W 061°54'0 0.0
2018-Feb-05 13:27N 17°05' W 061°54'0 0.0
2018-Feb-05 12:57N 17°05' W 061°54'0 0.0
2018-Feb-05 12:30N 17°05' W 061°54'0 0.0
2018-Feb-05 11:42N 17°05' W 061°54'0 0.0
2018-Feb-05 11:30N 17°05' W 061°54'0 0.0
2018-Feb-05 11:00N 17°05' W 061°54'0 0.0
2018-Feb-05 09:39N 17°05' W 061°54'0 0.0
2018-Feb-05 09:30N 17°05' W 061°54'0 0.0
2018-Feb-05 09:00N 17°05' W 061°54'0 0.0
2018-Feb-05 08:27N 17°05' W 061°54'0 0.0
2018-Feb-05 07:54N 17°05' W 061°54'0 0.0
2018-Feb-05 07:24N 17°05' W 061°54'0 0.0
2018-Feb-05 07:00N 17°05' W 061°54'0 0.0
2018-Feb-05 06:18N 17°05' W 061°54'  
Track history (hours):
 
Tides and Currents Weather Stations Pressure Air Temp Water Temp Dewpoint Dewpoint Depression Visibility Wind Speed Wind Dir Waves Ship Positions

Quiset

Last reported at 2018-Feb-15 05:52 UTC. Time now 2018-Feb-17 19:08 UTC.
Position N 17°23' W 062°16'.

MMSI: 244020394.

Date/timePositionNaut miles runAvg speedWind from/ knotsBaromVisibWave heightAir tempDewpointWater temp
2018-Feb-15 05:52N 17°23' W 062°16'4 7.7
2018-Feb-15 05:18N 17°20' W 062°12'2 7.8
2018-Feb-15 05:00N 17°18' W 062°10'4 7.6
2018-Feb-15 04:29N 17°16' W 062°07'4 8.0
2018-Feb-15 04:00N 17°13' W 062°05'4 8.1
2018-Feb-15 03:30N 17°10' W 062°02'4 7.7
2018-Feb-15 03:00N 17°07' W 061°58'4 7.0
2018-Feb-15 02:30N 17°05' W 061°56'2 3.4
2018-Feb-15 02:00N 17°05' W 061°54'1 0.3
2018-Feb-15 00:07N 17°04' W 061°54'0 0.0
2018-Feb-14 23:58N 17°04' W 061°54'0 0.0
2018-Feb-14 23:25N 17°04' W 061°54'0 0.0
2018-Feb-14 22:55N 17°04' W 061°54'0 0.0
2018-Feb-14 22:19N 17°04' W 061°54'0 0.0
2018-Feb-14 20:46N 17°04' W 061°54'0 0.0
2018-Feb-14 20:19N 17°04' W 061°54'0 0.0
2018-Feb-14 19:58N 17°04' W 061°54'0 0.0
2018-Feb-14 19:28N 17°04' W 061°54'0 0.0
2018-Feb-14 18:58N 17°04' W 061°54'0 0.0
2018-Feb-14 18:28N 17°04' W 061°54'0 0.0
2018-Feb-14 15:52N 17°04' W 061°54'0 0.0
2018-Feb-14 14:52N 17°04' W 061°54'0 0.0
2018-Feb-14 14:01N 17°04' W 061°54'0 0.0
2018-Feb-14 13:55N 17°04' W 061°54'0 0.0
2018-Feb-14 13:19N 17°04' W 061°54'0 0.0
2018-Feb-14 11:22N 17°04' W 061°54'0 0.0
2018-Feb-14 07:28N 17°04' W 061°54'0 0.0
2018-Feb-14 06:49N 17°04' W 061°54'0 0.0
2018-Feb-14 06:13N 17°04' W 061°54'0 0.0
2018-Feb-14 05:46N 17°04' W 061°54'0 0.0
2018-Feb-14 05:19N 17°04' W 061°54'0 0.0
2018-Feb-14 04:55N 17°04' W 061°54'0 0.0
2018-Feb-14 04:25N 17°04' W 061°54'0 0.0
2018-Feb-14 03:58N 17°04' W 061°54'0 0.0
2018-Feb-14 03:28N 17°04' W 061°54'0 0.0
2018-Feb-14 02:49N 17°04' W 061°54'0 0.0
2018-Feb-14 02:28N 17°04' W 061°54'0 0.0
2018-Feb-14 01:55N 17°04' W 061°54'0 0.0
2018-Feb-14 01:16N 17°04' W 061°54'0 0.0
2018-Feb-14 00:58N 17°04' W 061°54'0 0.0
2018-Feb-14 00:22N 17°04' W 061°54'0 0.0
2018-Feb-13 23:43N 17°04' W 061°54'0 0.0
2018-Feb-13 23:28N 17°04' W 061°54'0 0.0
2018-Feb-13 22:52N 17°04' W 061°54'0 0.0
2018-Feb-13 22:19N 17°04' W 061°54'0 0.0
2018-Feb-13 21:58N 17°04' W 061°54'0 0.0
2018-Feb-13 21:07N 17°04' W 061°54'0 0.0
2018-Feb-13 20:49N 17°04' W 061°54'0 0.0
2018-Feb-13 20:22N 17°04' W 061°54'0 0.0
2018-Feb-13 19:55N 17°04' W 061°54'0 0.0
2018-Feb-13 19:28N 17°04' W 061°54'0 0.0
2018-Feb-13 18:19N 17°04' W 061°54'0 0.0
2018-Feb-13 17:49N 17°04' W 061°54'0 0.0
2018-Feb-13 17:25N 17°04' W 061°54'0 0.0
2018-Feb-13 15:31N 17°04' W 061°54'0 0.1
2018-Feb-13 15:28N 17°04' W 061°54'0 0.0
2018-Feb-13 14:34N 17°04' W 061°54'0 0.1
2018-Feb-13 14:28N 17°04' W 061°54'0 0.0
2018-Feb-13 13:58N 17°04' W 061°54'0 0.0
2018-Feb-13 13:22N 17°04' W 061°54'0 0.0
2018-Feb-13 12:55N 17°04' W 061°54'0 0.0
2018-Feb-13 11:46N 17°04' W 061°54'0 0.0
2018-Feb-13 10:10N 17°04' W 061°54'0 0.0
2018-Feb-13 05:46N 17°04' W 061°54'0 0.0
2018-Feb-12 23:58N 17°04' W 061°54'0 0.0
2018-Feb-12 20:52N 17°04' W 061°54'0 0.0
2018-Feb-12 20:28N 17°04' W 061°54'0 0.0
2018-Feb-12 19:19N 17°04' W 061°54'0 0.0
2018-Feb-12 18:55N 17°04' W 061°54'0 0.0
2018-Feb-12 18:28N 17°04' W 061°54'0 0.0
2018-Feb-12 14:24N 17°05' W 061°54'1 3.5
2018-Feb-12 14:00N 17°05' W 061°55'3 5.7
2018-Feb-12 13:30N 17°07' W 061°54'1 1.3
2018-Feb-12 12:59N 17°08' W 061°53'0 0.0
2018-Feb-12 12:29N 17°08' W 061°53'0 0.0
2018-Feb-12 11:59N 17°08' W 061°53'0 0.0
2018-Feb-12 11:29N 17°08' W 061°53'0 0.0
2018-Feb-12 10:59N 17°08' W 061°53'0 0.0
2018-Feb-12 10:29N 17°08' W 061°53'0 0.0
2018-Feb-12 09:59N 17°08' W 061°53'0 0.0
2018-Feb-12 09:29N 17°08' W 061°53'0 0.0
2018-Feb-12 08:59N 17°08' W 061°53'0 0.0
2018-Feb-12 08:29N 17°08' W 061°53'0 0.0
2018-Feb-12 07:59N 17°08' W 061°53'0 0.0
2018-Feb-12 07:29N 17°08' W 061°53'0 0.0
2018-Feb-12 06:56N 17°08' W 061°53'0 0.0
2018-Feb-12 06:29N 17°08' W 061°53'0 0.0
2018-Feb-12 05:59N 17°08' W 061°53'0 0.0
2018-Feb-12 05:29N 17°08' W 061°53'0 0.0
2018-Feb-12 04:59N 17°08' W 061°53'0 0.0
2018-Feb-12 04:29N 17°08' W 061°53'0 0.0
2018-Feb-12 03:59N 17°08' W 061°53'0 0.0
2018-Feb-12 03:29N 17°08' W 061°53'0 0.0
2018-Feb-12 02:59N 17°08' W 061°53'0 0.0
2018-Feb-12 02:29N 17°08' W 061°53'0 0.0
2018-Feb-12 01:59N 17°08' W 061°53'0 0.0
2018-Feb-12 01:29N 17°08' W 061°53'0 0.0
2018-Feb-12 00:59N 17°08' W 061°53'0 0.0
2018-Feb-12 00:29N 17°08' W 061°53'0 0.0
2018-Feb-11 23:59N 17°08' W 061°53'0 0.0
2018-Feb-11 23:29N 17°08' W 061°53'0 0.0
2018-Feb-11 22:59N 17°08' W 061°53'0 0.0
2018-Feb-11 22:29N 17°08' W 061°53'0 0.0
2018-Feb-11 21:56N 17°08' W 061°53'0 0.0
2018-Feb-11 21:29N 17°08' W 061°53'0 0.0
2018-Feb-11 20:56N 17°08' W 061°53'0 0.0
2018-Feb-11 20:26N 17°08' W 061°53'0 0.0
2018-Feb-11 19:59N 17°08' W 061°53'0 0.0
2018-Feb-11 19:29N 17°08' W 061°53'0 0.0
2018-Feb-11 18:56N 17°08' W 061°53'0 0.0
2018-Feb-11 18:29N 17°08' W 061°53'0 0.0
2018-Feb-11 17:59N 17°08' W 061°53'0 0.0
2018-Feb-11 17:29N 17°08' W 061°53'0 0.0
2018-Feb-11 16:59N 17°08' W 061°53'0 0.0
2018-Feb-11 16:29N 17°08' W 061°53'0 0.0
2018-Feb-11 15:59N 17°08' W 061°53'0 0.0
2018-Feb-11 15:29N 17°08' W 061°53'0 0.0
2018-Feb-11 14:59N 17°08' W 061°53'0 0.0
2018-Feb-11 14:29N 17°08' W 061°53'0 0.0
2018-Feb-11 13:59N 17°08' W 061°53'0 0.0
2018-Feb-11 13:29N 17°08' W 061°53'0 0.0
2018-Feb-11 12:56N 17°08' W 061°53'0 0.0
2018-Feb-11 12:29N 17°08' W 061°53'0 0.0
2018-Feb-11 11:59N 17°08' W 061°53'0 0.0
2018-Feb-11 11:29N 17°08' W 061°53'0 0.0
2018-Feb-11 10:59N 17°08' W 061°53'0 0.0
2018-Feb-11 10:29N 17°08' W 061°53'0 0.0
2018-Feb-11 09:59N 17°08' W 061°53'0 0.0
2018-Feb-11 09:29N 17°08' W 061°53'0 0.0
2018-Feb-11 08:59N 17°08' W 061°53'0 0.0
2018-Feb-11 08:29N 17°08' W 061°53'0 0.0
2018-Feb-11 07:59N 17°08' W 061°53'0 0.0
2018-Feb-11 07:26N 17°08' W 061°53'0 0.0
2018-Feb-11 06:59N 17°08' W 061°53'0 0.0
2018-Feb-11 06:29N 17°08' W 061°53'0 0.0
2018-Feb-11 05:59N 17°08' W 061°53'0 0.0
2018-Feb-11 05:29N 17°08' W 061°53'0 0.0
2018-Feb-11 04:59N 17°08' W 061°53'0 0.0
2018-Feb-11 04:29N 17°08' W 061°53'0 0.0
2018-Feb-11 03:56N 17°08' W 061°53'0 0.0
2018-Feb-11 03:29N 17°08' W 061°53'0 0.0
2018-Feb-11 02:59N 17°08' W 061°53'0 0.0
2018-Feb-11 02:29N 17°08' W 061°53'0 0.0
2018-Feb-11 01:59N 17°08' W 061°53'0 0.0
2018-Feb-11 01:29N 17°08' W 061°53'0 0.0
2018-Feb-11 00:59N 17°08' W 061°53'0 0.0
2018-Feb-11 00:29N 17°08' W 061°53'0 0.0
2018-Feb-10 23:59N 17°08' W 061°53'0 0.0
2018-Feb-10 23:26N 17°08' W 061°53'0 0.0
2018-Feb-10 22:59N 17°08' W 061°53'0 0.0
2018-Feb-10 22:29N 17°08' W 061°53'0 0.0
2018-Feb-10 21:59N 17°08' W 061°53'0 0.0
2018-Feb-10 21:26N 17°08' W 061°53'0 0.0
2018-Feb-10 20:59N 17°08' W 061°53'0 0.0
2018-Feb-10 20:29N 17°08' W 061°53'0 0.0
2018-Feb-10 19:59N 17°08' W 061°53'0 0.0
2018-Feb-10 19:29N 17°08' W 061°53'0 0.0
2018-Feb-10 18:59N 17°08' W 061°53'0 0.0
2018-Feb-10 18:29N 17°08' W 061°53'0 0.0
2018-Feb-10 17:59N 17°08' W 061°53'0 0.0
2018-Feb-10 17:29N 17°08' W 061°53'0 0.0
2018-Feb-10 16:59N 17°08' W 061°53'0 0.0
2018-Feb-10 16:29N 17°08' W 061°53'0 0.0
2018-Feb-10 15:59N 17°08' W 061°53'0 0.0
2018-Feb-10 15:26N 17°08' W 061°53'0 0.0
2018-Feb-10 14:59N 17°08' W 061°53'0 0.0
2018-Feb-10 14:29N 17°08' W 061°53'0 0.0
2018-Feb-10 13:59N 17°08' W 061°53'0 0.0
2018-Feb-10 13:29N 17°08' W 061°53'0 0.0
2018-Feb-10 12:59N 17°08' W 061°53'0 0.0
2018-Feb-10 12:29N 17°08' W 061°53'0 0.0
2018-Feb-10 11:53N 17°08' W 061°53'0 0.0
2018-Feb-10 11:29N 17°08' W 061°53'0 0.0
2018-Feb-10 10:59N 17°08' W 061°53'0 0.0
2018-Feb-10 10:29N 17°08' W 061°53'0 0.0
2018-Feb-10 09:59N 17°08' W 061°53'0 0.0
2018-Feb-10 09:29N 17°08' W 061°53'0 0.0
2018-Feb-10 08:59N 17°08' W 061°53'0 0.0
2018-Feb-10 08:29N 17°08' W 061°53'0 0.0
2018-Feb-10 07:59N 17°08' W 061°53'0 0.0
2018-Feb-10 07:29N 17°08' W 061°53'0 0.0
2018-Feb-10 06:59N 17°08' W 061°53'0 0.0
2018-Feb-10 06:29N 17°08' W 061°53'0 0.0
2018-Feb-10 05:59N 17°08' W 061°53'0 0.0
2018-Feb-10 05:29N 17°08' W 061°53'0 0.0
2018-Feb-10 04:59N 17°08' W 061°53'0 0.0
2018-Feb-10 04:29N 17°08' W 061°53'0 0.0
2018-Feb-10 03:59N 17°08' W 061°53'0 0.0
2018-Feb-10 03:29N 17°08' W 061°53'0 0.0
2018-Feb-10 02:56N 17°08' W 061°53'0 0.0
2018-Feb-10 02:29N 17°08' W 061°53'0 0.0
2018-Feb-10 01:59N 17°08' W 061°53'0 0.0
2018-Feb-10 01:29N 17°08' W 061°53'0 0.0
2018-Feb-10 00:59N 17°08' W 061°53'0 0.0
2018-Feb-10 00:29N 17°08' W 061°53'0 0.0
2018-Feb-09 23:59N 17°08' W 061°53'0 0.0
2018-Feb-09 23:29N 17°08' W 061°53'0 0.0
2018-Feb-09 22:59N 17°08' W 061°53'0 0.0
2018-Feb-09 22:44N 17°08' W 061°53'1 0.1
2018-Feb-09 18:30N 17°08' W 061°53'1 0.0
2018-Feb-08 01:27N 17°08' W 061°53'0 0.0
2018-Feb-08 00:57N 17°08' W 061°53'0 0.0
2018-Feb-08 00:30N 17°08' W 061°53'0 0.0
2018-Feb-08 00:00N 17°08' W 061°53'0 0.0
2018-Feb-07 23:30N 17°08' W 061°53'0 0.0
2018-Feb-07 22:57N 17°08' W 061°53'0 0.0
2018-Feb-07 22:30N 17°08' W 061°53'0 0.0
2018-Feb-07 22:00N 17°08' W 061°53'0 0.0
2018-Feb-07 21:30N 17°08' W 061°53'3 0.3
2018-Feb-07 09:24N 17°05' W 061°54'0 0.0
2018-Feb-07 09:00N 17°05' W 061°54'0 0.0
2018-Feb-07 08:30N 17°05' W 061°54'0 0.0
2018-Feb-07 07:54N 17°05' W 061°54'0 0.0
2018-Feb-07 07:27N 17°05' W 061°54'0 0.0
2018-Feb-07 06:57N 17°05' W 061°54'0 0.0
2018-Feb-07 06:24N 17°05' W 061°54'0 0.0
2018-Feb-07 06:00N 17°05' W 061°54'0 0.0
2018-Feb-07 05:27N 17°05' W 061°54'0 0.0
2018-Feb-07 05:00N 17°05' W 061°54'0 0.0
2018-Feb-07 04:30N 17°05' W 061°54'0 0.0
2018-Feb-07 03:57N 17°05' W 061°54'0 0.0
2018-Feb-07 03:27N 17°05' W 061°54'0 0.0
2018-Feb-07 02:57N 17°05' W 061°54'0 0.0
2018-Feb-07 02:27N 17°05' W 061°54'0 0.0
2018-Feb-07 02:00N 17°05' W 061°54'0 0.0
2018-Feb-07 01:21N 17°05' W 061°54'0 0.0
2018-Feb-07 00:51N 17°05' W 061°54'0 0.0
2018-Feb-07 00:27N 17°05' W 061°54'0 0.0
2018-Feb-07 00:00N 17°05' W 061°54'0 0.0
2018-Feb-06 23:30N 17°05' W 061°54'0 0.0
2018-Feb-06 22:54N 17°05' W 061°54'0 0.0
2018-Feb-06 22:30N 17°05' W 061°54'0 0.0
2018-Feb-06 21:51N 17°05' W 061°54'0 0.0
2018-Feb-06 21:15N 17°05' W 061°54'0 0.0
2018-Feb-06 20:57N 17°05' W 061°54'0 0.0
2018-Feb-06 20:30N 17°05' W 061°54'0 0.0
2018-Feb-06 19:57N 17°05' W 061°54'0 0.0
2018-Feb-06 19:30N 17°05' W 061°54'0 0.0
2018-Feb-06 18:57N 17°05' W 061°54'0 0.0
2018-Feb-06 18:24N 17°05' W 061°54'0 0.0
2018-Feb-06 17:36N 17°05' W 061°54'0 0.0
2018-Feb-06 17:24N 17°05' W 061°54'0 0.0
2018-Feb-06 17:00N 17°05' W 061°54'0 0.0
2018-Feb-06 15:51N 17°05' W 061°54'0 0.0
2018-Feb-06 15:24N 17°05' W 061°54'0 0.0
2018-Feb-06 14:27N 17°05' W 061°54'0 0.0
2018-Feb-06 13:39N 17°05' W 061°54'0 0.0
2018-Feb-06 13:24N 17°05' W 061°54'0 0.0
2018-Feb-06 13:00N 17°05' W 061°54'0 0.0
2018-Feb-06 12:30N 17°05' W 061°54'0 0.0
2018-Feb-06 12:00N 17°05' W 061°54'0 0.0
2018-Feb-06 11:18N 17°05' W 061°54'0 0.0
2018-Feb-06 11:00N 17°05' W 061°54'0 0.0
2018-Feb-06 10:27N 17°05' W 061°54'0 0.0
2018-Feb-06 09:51N 17°05' W 061°54'0 0.0
2018-Feb-06 09:30N 17°05' W 061°54'0 0.0
2018-Feb-06 09:00N 17°05' W 061°54'0 0.0
2018-Feb-06 08:06N 17°05' W 061°54'0 0.0
2018-Feb-06 08:00N 17°05' W 061°54'0 0.0
2018-Feb-06 07:15N 17°05' W 061°54'0 0.0
2018-Feb-06 06:54N 17°05' W 061°54'0 0.0
2018-Feb-06 06:24N 17°05' W 061°54'0 0.0
2018-Feb-06 05:51N 17°05' W 061°54'0 0.0
2018-Feb-06 05:24N 17°05' W 061°54'0 0.0
2018-Feb-06 04:48N 17°05' W 061°54'0 0.0
2018-Feb-06 03:57N 17°05' W 061°54'0 0.0
2018-Feb-06 03:21N 17°05' W 061°54'0 0.0
2018-Feb-06 02:48N 17°05' W 061°54'0 0.0
2018-Feb-06 02:24N 17°05' W 061°54'0 0.0
2018-Feb-06 02:00N 17°05' W 061°54'0 0.0
2018-Feb-06 01:30N 17°05' W 061°54'0 0.0
2018-Feb-06 00:57N 17°05' W 061°54'0 0.0
2018-Feb-06 00:30N 17°05' W 061°54'0 0.0
2018-Feb-05 23:54N 17°05' W 061°54'0 0.0
2018-Feb-05 23:30N 17°05' W 061°54'0 0.0
2018-Feb-05 22:51N 17°05' W 061°54'0 0.0
2018-Feb-05 22:30N 17°05' W 061°54'0 0.0
2018-Feb-05 21:54N 17°05' W 061°54'0 0.0
2018-Feb-05 21:00N 17°05' W 061°54'0 0.0
2018-Feb-05 20:30N 17°05' W 061°54'0 0.0
2018-Feb-05 19:24N 17°05' W 061°54'0 0.0
2018-Feb-05 18:48N 17°05' W 061°54'0 0.0
2018-Feb-05 18:27N 17°05' W 061°54'0 0.0
2018-Feb-05 17:48N 17°05' W 061°54'0 0.0
2018-Feb-05 17:30N 17°05' W 061°54'0 0.0
2018-Feb-05 13:54N 17°05' W 061°54'0 0.0
2018-Feb-05 13:27N 17°05' W 061°54'0 0.0
2018-Feb-05 12:57N 17°05' W 061°54'0 0.0
2018-Feb-05 12:30N 17°05' W 061°54'0 0.0
2018-Feb-05 11:42N 17°05' W 061°54'0 0.0
2018-Feb-05 11:30N 17°05' W 061°54'0 0.0
2018-Feb-05 11:00N 17°05' W 061°54'0 0.0
2018-Feb-05 09:39N 17°05' W 061°54'0 0.0
2018-Feb-05 09:30N 17°05' W 061°54'0 0.0
2018-Feb-05 09:00N 17°05' W 061°54'0 0.0
2018-Feb-05 08:27N 17°05' W 061°54'0 0.0
2018-Feb-05 07:54N 17°05' W 061°54'0 0.0
2018-Feb-05 07:24N 17°05' W 061°54'0 0.0
2018-Feb-05 07:00N 17°05' W 061°54'0 0.0
2018-Feb-05 06:18N 17°05' W 061°54'  

Dump ship's entire track history